sensor_id;sensor_type;location;lat;lon;timestamp;pressure;altitude;pressure_sealevel;temperature;humidity
69058;BME280;56128;37.534;-122.308;2022-08-20T00:00:11;100746.88;;;20.66;61.37
69058;BME280;56128;37.534;-122.308;2022-08-20T00:02:47;100756.72;;;20.67;62.16
69058;BME280;56128;37.534;-122.308;2022-08-20T00:05:15;100755.13;;;20.58;62.09
69058;BME280;56128;37.534;-122.308;2022-08-20T00:07:42;100746.50;;;20.54;61.87
69058;BME280;56128;37.534;-122.308;2022-08-20T00:10:08;100739.22;;;20.47;61.90
69058;BME280;56128;37.534;-122.308;2022-08-20T00:12:36;100746.19;;;20.49;62.04
69058;BME280;56128;37.534;-122.308;2022-08-20T00:15:04;100746.06;;;20.42;62.12
69058;BME280;56128;37.534;-122.308;2022-08-20T00:17:30;100738.44;;;20.38;62.52
69058;BME280;56128;37.534;-122.308;2022-08-20T00:20:04;100736.50;;;20.32;62.59
69058;BME280;56128;37.534;-122.308;2022-08-20T00:22:32;100739.22;;;20.32;63.30
69058;BME280;56128;37.534;-122.308;2022-08-20T00:24:58;100732.81;;;20.24;63.04
69058;BME280;56128;37.534;-122.308;2022-08-20T00:27:25;100739.06;;;20.25;63.30
69058;BME280;56128;37.534;-122.308;2022-08-20T00:29:51;100728.81;;;20.12;63.18
69058;BME280;56128;37.534;-122.308;2022-08-20T00:32:17;100736.78;;;20.14;63.35
69058;BME280;56128;37.534;-122.308;2022-08-20T00:34:43;100734.78;;;20.07;63.69
69058;BME280;56128;37.534;-122.308;2022-08-20T00:37:09;100741.22;;;20.06;64.06
69058;BME280;56128;37.534;-122.308;2022-08-20T00:39:35;100747.03;;;20.03;63.83
69058;BME280;56128;37.534;-122.308;2022-08-20T00:42:02;100732.66;;;19.94;63.94
69058;BME280;56128;37.534;-122.308;2022-08-20T00:44:29;100737.78;;;19.89;64.63
69058;BME280;56128;37.534;-122.308;2022-08-20T00:46:55;100746.59;;;19.91;64.75
69058;BME280;56128;37.534;-122.308;2022-08-20T00:49:24;100728.31;;;19.85;64.74
69058;BME280;56128;37.534;-122.308;2022-08-20T00:52:15;100722.53;;;19.80;65.13
69058;BME280;56128;37.534;-122.308;2022-08-20T00:54:49;100716.19;;;19.65;65.74
69058;BME280;56128;37.534;-122.308;2022-08-20T00:57:34;100723.78;;;19.69;65.83
69058;BME280;56128;37.534;-122.308;2022-08-20T01:00:05;100726.34;;;19.62;66.64
69058;BME280;56128;37.534;-122.308;2022-08-20T01:02:33;100720.13;;;19.54;66.31
69058;BME280;56128;37.534;-122.308;2022-08-20T01:05:00;100727.44;;;19.53;66.73
69058;BME280;56128;37.534;-122.308;2022-08-20T01:07:26;100723.38;;;19.49;66.31
69058;BME280;56128;37.534;-122.308;2022-08-20T01:09:59;100727.94;;;19.49;66.39
69058;BME280;56128;37.534;-122.308;2022-08-20T01:12:28;100726.63;;;19.44;66.38
69058;BME280;56128;37.534;-122.308;2022-08-20T01:14:55;100726.50;;;19.38;66.44
69058;BME280;56128;37.534;-122.308;2022-08-20T01:17:24;100729.22;;;19.29;66.98
69058;BME280;56128;37.534;-122.308;2022-08-20T01:20:05;100728.22;;;19.22;67.28
69058;BME280;56128;37.534;-122.308;2022-08-20T01:26:02;100725.25;;;19.01;68.54
69058;BME280;56128;37.534;-122.308;2022-08-20T01:28:52;100722.38;;;18.86;69.53
69058;BME280;56128;37.534;-122.308;2022-08-20T01:31:25;100717.13;;;18.76;69.93
69058;BME280;56128;37.534;-122.308;2022-08-20T01:33:53;100722.06;;;18.64;70.57
69058;BME280;56128;37.534;-122.308;2022-08-20T01:36:23;100720.56;;;18.53;71.05
69058;BME280;56128;37.534;-122.308;2022-08-20T01:38:49;100721.41;;;18.45;71.41
69058;BME280;56128;37.534;-122.308;2022-08-20T01:42:06;100707.34;;;18.25;71.60
69058;BME280;56128;37.534;-122.308;2022-08-20T01:44:12;100712.63;;;18.19;72.34
69058;BME280;56128;37.534;-122.308;2022-08-20T01:46:40;100720.41;;;18.13;72.75
69058;BME280;56128;37.534;-122.308;2022-08-20T01:49:47;100707.66;;;18.06;72.99
69058;BME280;56128;37.534;-122.308;2022-08-20T01:52:11;100713.28;;;17.96;73.72
69058;BME280;56128;37.534;-122.308;2022-08-20T01:54:39;100710.31;;;17.89;73.83
69058;BME280;56128;37.534;-122.308;2022-08-20T01:57:15;100706.25;;;17.77;74.12
69058;BME280;56128;37.534;-122.308;2022-08-20T01:59:42;100711.66;;;17.68;74.79
69058;BME280;56128;37.534;-122.308;2022-08-20T02:02:09;100712.47;;;17.61;74.72
69058;BME280;56128;37.534;-122.308;2022-08-20T02:04:37;100706.00;;;17.45;75.37
69058;BME280;56128;37.534;-122.308;2022-08-20T02:07:07;100715.13;;;17.44;76.09
69058;BME280;56128;37.534;-122.308;2022-08-20T02:09:37;100717.78;;;17.36;76.61
69058;BME280;56128;37.534;-122.308;2022-08-20T02:12:06;100713.56;;;17.33;76.74
69058;BME280;56128;37.534;-122.308;2022-08-20T02:14:34;100716.38;;;17.24;76.74
69058;BME280;56128;37.534;-122.308;2022-08-20T02:17:01;100727.00;;;17.17;77.50
69058;BME280;56128;37.534;-122.308;2022-08-20T02:19:38;100727.66;;;17.11;77.92
69058;BME280;56128;37.534;-122.308;2022-08-20T02:22:17;100723.53;;;16.98;78.56
69058;BME280;56128;37.534;-122.308;2022-08-20T02:24:45;100724.59;;;16.87;79.03
69058;BME280;56128;37.534;-122.308;2022-08-20T02:27:12;100733.34;;;16.81;79.26
69058;BME280;56128;37.534;-122.308;2022-08-20T02:29:38;100733.59;;;16.70;79.98
69058;BME280;56128;37.534;-122.308;2022-08-20T02:32:06;100737.44;;;16.59;80.93
69058;BME280;56128;37.534;-122.308;2022-08-20T02:34:34;100741.06;;;16.50;81.13
69058;BME280;56128;37.534;-122.308;2022-08-20T02:37:00;100731.91;;;16.43;81.22
69058;BME280;56128;37.534;-122.308;2022-08-20T02:39:27;100738.22;;;16.33;82.04
69058;BME280;56128;37.534;-122.308;2022-08-20T02:41:53;100725.97;;;16.21;82.40
69058;BME280;56128;37.534;-122.308;2022-08-20T02:44:19;100741.50;;;16.19;82.58
69058;BME280;56128;37.534;-122.308;2022-08-20T02:46:46;100733.28;;;16.11;82.80
69058;BME280;56128;37.534;-122.308;2022-08-20T02:49:18;100729.84;;;16.00;83.74
69058;BME280;56128;37.534;-122.308;2022-08-20T02:51:45;100738.94;;;15.99;84.74
69058;BME280;56128;37.534;-122.308;2022-08-20T02:54:13;100740.31;;;15.85;84.90
69058;BME280;56128;37.534;-122.308;2022-08-20T02:56:39;100748.41;;;15.85;84.92
69058;BME280;56128;37.534;-122.308;2022-08-20T02:59:06;100745.00;;;15.73;85.54
69058;BME280;56128;37.534;-122.308;2022-08-20T03:01:32;100748.19;;;15.69;86.16
69058;BME280;56128;37.534;-122.308;2022-08-20T03:03:59;100747.91;;;15.62;86.30
69058;BME280;56128;37.534;-122.308;2022-08-20T03:06:26;100739.75;;;15.54;86.37
69058;BME280;56128;37.534;-122.308;2022-08-20T03:08:53;100740.03;;;15.51;87.14
69058;BME280;56128;37.534;-122.308;2022-08-20T03:11:19;100737.53;;;15.39;88.24
69058;BME280;56128;37.534;-122.308;2022-08-20T03:13:46;100746.09;;;15.35;88.59
69058;BME280;56128;37.534;-122.308;2022-08-20T03:16:13;100740.44;;;15.28;89.34
69058;BME280;56128;37.534;-122.308;2022-08-20T03:18:42;100750.81;;;15.23;89.46
69058;BME280;56128;37.534;-122.308;2022-08-20T03:21:10;100749.56;;;15.17;89.79
69058;BME280;56128;37.534;-122.308;2022-08-20T03:23:38;100743.22;;;15.08;89.75
69058;BME280;56128;37.534;-122.308;2022-08-20T03:26:06;100737.13;;;15.06;90.22
69058;BME280;56128;37.534;-122.308;2022-08-20T03:28:33;100741.94;;;15.03;90.67
69058;BME280;56128;37.534;-122.308;2022-08-20T03:31:00;100746.78;;;14.99;91.24
69058;BME280;56128;37.534;-122.308;2022-08-20T03:33:27;100745.66;;;14.92;91.61
69058;BME280;56128;37.534;-122.308;2022-08-20T03:35:53;100752.06;;;14.91;92.01
69058;BME280;56128;37.534;-122.308;2022-08-20T03:38:21;100755.03;;;14.88;91.87
69058;BME280;56128;37.534;-122.308;2022-08-20T03:40:48;100749.38;;;14.81;92.66
69058;BME280;56128;37.534;-122.308;2022-08-20T03:43:15;100754.22;;;14.77;92.65
69058;BME280;56128;37.534;-122.308;2022-08-20T03:45:43;100758.88;;;14.75;93.13
69058;BME280;56128;37.534;-122.308;2022-08-20T03:48:13;100744.31;;;14.68;93.79
69058;BME280;56128;37.534;-122.308;2022-08-20T03:50:40;100751.53;;;14.68;93.68
69058;BME280;56128;37.534;-122.308;2022-08-20T03:53:08;100750.25;;;14.62;94.23
69058;BME280;56128;37.534;-122.308;2022-08-20T03:55:35;100747.97;;;14.57;93.64
69058;BME280;56128;37.534;-122.308;2022-08-20T03:58:04;100761.84;;;14.63;94.16
69058;BME280;56128;37.534;-122.308;2022-08-20T04:00:43;100754.06;;;14.59;94.77
69058;BME280;56128;37.534;-122.308;2022-08-20T04:03:10;100769.38;;;14.59;95.13
69058;BME280;56128;37.534;-122.308;2022-08-20T04:05:38;100763.56;;;14.54;95.05
69058;BME280;56128;37.534;-122.308;2022-08-20T04:08:18;100779.88;;;14.52;94.98
69058;BME280;56128;37.534;-122.308;2022-08-20T04:10:46;100774.75;;;14.49;95.24
69058;BME280;56128;37.534;-122.308;2022-08-20T04:13:17;100783.41;;;14.53;96.47
69058;BME280;56128;37.534;-122.308;2022-08-20T04:15:44;100770.91;;;14.52;96.52
69058;BME280;56128;37.534;-122.308;2022-08-20T04:18:11;100769.53;;;14.48;96.10
69058;BME280;56128;37.534;-122.308;2022-08-20T04:20:40;100768.78;;;14.45;96.54
69058;BME280;56128;37.534;-122.308;2022-08-20T04:23:07;100761.03;;;14.42;96.62
69058;BME280;56128;37.534;-122.308;2022-08-20T04:25:36;100756.19;;;14.36;96.74
69058;BME280;56128;37.534;-122.308;2022-08-20T04:28:07;100757.91;;;14.37;97.19
69058;BME280;56128;37.534;-122.308;2022-08-20T04:30:33;100763.28;;;14.37;96.48
69058;BME280;56128;37.534;-122.308;2022-08-20T04:33:00;100760.88;;;14.34;96.63
69058;BME280;56128;37.534;-122.308;2022-08-20T04:35:27;100769.38;;;14.29;97.20
69058;BME280;56128;37.534;-122.308;2022-08-20T04:38:08;100766.13;;;14.26;97.33
69058;BME280;56128;37.534;-122.308;2022-08-20T04:40:38;100754.94;;;14.21;97.65
69058;BME280;56128;37.534;-122.308;2022-08-20T04:43:28;100764.84;;;14.20;98.31
69058;BME280;56128;37.534;-122.308;2022-08-20T04:45:56;100769.53;;;14.18;98.67
69058;BME280;56128;37.534;-122.308;2022-08-20T04:48:24;100773.19;;;14.17;98.97
69058;BME280;56128;37.534;-122.308;2022-08-20T04:50:52;100766.84;;;14.18;98.60
69058;BME280;56128;37.534;-122.308;2022-08-20T04:53:21;100776.88;;;14.16;99.07
69058;BME280;56128;37.534;-122.308;2022-08-20T04:55:49;100773.19;;;14.17;99.34
69058;BME280;56128;37.534;-122.308;2022-08-20T04:58:27;100775.19;;;14.15;99.13
69058;BME280;56128;37.534;-122.308;2022-08-20T05:01:00;100771.06;;;14.11;99.09
69058;BME280;56128;37.534;-122.308;2022-08-20T05:03:27;100774.31;;;14.05;99.04
69058;BME280;56128;37.534;-122.308;2022-08-20T05:05:53;100770.34;;;14.09;99.04
69058;BME280;56128;37.534;-122.308;2022-08-20T05:08:22;100771.47;;;14.06;99.67
69058;BME280;56128;37.534;-122.308;2022-08-20T05:10:51;100765.13;;;14.07;99.88
69058;BME280;56128;37.534;-122.308;2022-08-20T05:13:18;100762.84;;;14.03;99.52
69058;BME280;56128;37.534;-122.308;2022-08-20T05:15:45;100775.44;;;14.02;99.47
69058;BME280;56128;37.534;-122.308;2022-08-20T05:18:12;100770.06;;;14.02;100.00
69058;BME280;56128;37.534;-122.308;2022-08-20T05:20:41;100779.13;;;14.01;100.00
69058;BME280;56128;37.534;-122.308;2022-08-20T05:23:09;100773.31;;;13.96;100.00
69058;BME280;56128;37.534;-122.308;2022-08-20T05:25:37;100772.03;;;14.00;100.00
69058;BME280;56128;37.534;-122.308;2022-08-20T05:28:10;100767.94;;;13.96;100.00
69058;BME280;56128;37.534;-122.308;2022-08-20T05:30:42;100775.16;;;13.95;99.99
69058;BME280;56128;37.534;-122.308;2022-08-20T05:33:10;100769.91;;;13.94;99.85
69058;BME280;56128;37.534;-122.308;2022-08-20T05:35:37;100767.94;;;13.96;99.96
69058;BME280;56128;37.534;-122.308;2022-08-20T05:38:09;100770.03;;;13.92;100.00
69058;BME280;56128;37.534;-122.308;2022-08-20T05:40:36;100766.53;;;13.92;99.83
69058;BME280;56128;37.534;-122.308;2022-08-20T05:43:03;100759.59;;;13.89;99.91
69058;BME280;56128;37.534;-122.308;2022-08-20T05:45:31;100759.00;;;13.86;99.83
69058;BME280;56128;37.534;-122.308;2022-08-20T05:48:02;100767.22;;;13.84;100.00
69058;BME280;56128;37.534;-122.308;2022-08-20T05:50:28;100766.34;;;13.84;100.00
69058;BME280;56128;37.534;-122.308;2022-08-20T05:52:54;100764.66;;;13.83;100.00
69058;BME280;56128;37.534;-122.308;2022-08-20T05:55:21;100757.84;;;13.78;100.00
69058;BME280;56128;37.534;-122.308;2022-08-20T05:57:48;100764.66;;;13.83;100.00
69058;BME280;56128;37.534;-122.308;2022-08-20T06:00:21;100750.75;;;13.77;100.00
69058;BME280;56128;37.534;-122.308;2022-08-20T06:02:47;100760.53;;;13.78;100.00
69058;BME280;56128;37.534;-122.308;2022-08-20T06:05:31;100759.56;;;13.79;100.00
69058;BME280;56128;37.534;-122.308;2022-08-20T06:07:59;100749.19;;;13.75;100.00
69058;BME280;56128;37.534;-122.308;2022-08-20T06:10:25;100759.56;;;13.79;100.00
69058;BME280;56128;37.534;-122.308;2022-08-20T06:12:51;100755.16;;;13.78;100.00
69058;BME280;56128;37.534;-122.308;2022-08-20T06:15:18;100746.66;;;13.73;100.00
69058;BME280;56128;37.534;-122.308;2022-08-20T06:17:44;100753.44;;;13.77;100.00
69058;BME280;56128;37.534;-122.308;2022-08-20T06:20:10;100751.63;;;13.78;100.00
69058;BME280;56128;37.534;-122.308;2022-08-20T06:22:37;100747.25;;;13.77;100.00
69058;BME280;56128;37.534;-122.308;2022-08-20T06:25:05;100749.50;;;13.72;100.00
69058;BME280;56128;37.534;-122.308;2022-08-20T06:27:32;100742.97;;;13.64;100.00
69058;BME280;56128;37.534;-122.308;2022-08-20T06:29:59;100749.31;;;13.63;100.00
69058;BME280;56128;37.534;-122.308;2022-08-20T06:32:25;100742.97;;;13.64;100.00
69058;BME280;56128;37.534;-122.308;2022-08-20T06:34:51;100745.06;;;13.61;100.00
69058;BME280;56128;37.534;-122.308;2022-08-20T06:37:21;100750.31;;;13.62;100.00
69058;BME280;56128;37.534;-122.308;2022-08-20T06:39:49;100747.75;;;13.61;100.00
69058;BME280;56128;37.534;-122.308;2022-08-20T06:42:16;100746.19;;;13.58;100.00
69058;BME280;56128;37.534;-122.308;2022-08-20T06:44:42;100751.28;;;13.61;100.00
69058;BME280;56128;37.534;-122.308;2022-08-20T06:47:12;100746.34;;;13.57;100.00
69058;BME280;56128;37.534;-122.308;2022-08-20T06:49:39;100749.88;;;13.57;100.00
69058;BME280;56128;37.534;-122.308;2022-08-20T06:52:05;100752.31;;;13.60;100.00
69058;BME280;56128;37.534;-122.308;2022-08-20T06:54:32;100755.25;;;13.57;100.00
69058;BME280;56128;37.534;-122.308;2022-08-20T06:57:00;100755.25;;;13.57;100.00
69058;BME280;56128;37.534;-122.308;2022-08-20T06:59:27;100750.16;;;13.54;100.00
69058;BME280;56128;37.534;-122.308;2022-08-20T07:01:53;100743.06;;;13.53;100.00
69058;BME280;56128;37.534;-122.308;2022-08-20T07:04:25;100746.75;;;13.52;100.00
69058;BME280;56128;37.534;-122.308;2022-08-20T07:06:53;100740.78;;;13.48;100.00
69058;BME280;56128;37.534;-122.308;2022-08-20T07:09:20;100745.91;;;13.52;100.00
69058;BME280;56128;37.534;-122.308;2022-08-20T07:11:47;100730.31;;;13.45;100.00
69058;BME280;56128;37.534;-122.308;2022-08-20T07:14:15;100736.53;;;13.46;100.00
69058;BME280;56128;37.534;-122.308;2022-08-20T07:16:41;100741.06;;;13.45;100.00
69058;BME280;56128;37.534;-122.308;2022-08-20T07:19:08;100740.34;;;13.43;100.00
69058;BME280;56128;37.534;-122.308;2022-08-20T07:21:35;100736.94;;;13.41;100.00
69058;BME280;56128;37.534;-122.308;2022-08-20T07:24:01;100735.38;;;13.39;100.00
69058;BME280;56128;37.534;-122.308;2022-08-20T07:26:28;100742.59;;;13.38;100.00
69058;BME280;56128;37.534;-122.308;2022-08-20T07:28:54;100742.97;;;13.34;100.00
69058;BME280;56128;37.534;-122.308;2022-08-20T07:31:21;100726.25;;;13.30;100.00
69058;BME280;56128;37.534;-122.308;2022-08-20T07:34:06;100732.16;;;13.24;100.00
69058;BME280;56128;37.534;-122.308;2022-08-20T07:36:33;100730.78;;;13.29;100.00
69058;BME280;56128;37.534;-122.308;2022-08-20T07:38:59;100739.25;;;13.25;100.00
69058;BME280;56128;37.534;-122.308;2022-08-20T07:41:26;100741.69;;;13.28;100.00
69058;BME280;56128;37.534;-122.308;2022-08-20T07:43:52;100737.28;;;13.27;100.00
69058;BME280;56128;37.534;-122.308;2022-08-20T07:46:19;100730.50;;;13.23;100.00
69058;BME280;56128;37.534;-122.308;2022-08-20T07:48:47;100729.03;;;13.19;100.00
69058;BME280;56128;37.534;-122.308;2022-08-20T07:51:16;100728.47;;;13.15;100.00
69058;BME280;56128;37.534;-122.308;2022-08-20T07:53:45;100724.09;;;13.14;100.00
69058;BME280;56128;37.534;-122.308;2022-08-20T07:56:15;100713.47;;;13.12;100.00
69058;BME280;56128;37.534;-122.308;2022-08-20T07:58:48;100712.91;;;13.09;100.00
69058;BME280;56128;37.534;-122.308;2022-08-20T08:01:16;100719.25;;;13.08;100.00
69058;BME280;56128;37.534;-122.308;2022-08-20T08:03:43;100715.00;;;13.05;100.00
69058;BME280;56128;37.534;-122.308;2022-08-20T08:06:09;100719.66;;;13.03;100.00
69058;BME280;56128;37.534;-122.308;2022-08-20T08:08:36;100713.44;;;13.03;100.00
69058;BME280;56128;37.534;-122.308;2022-08-20T08:11:03;100714.28;;;13.03;100.00
69058;BME280;56128;37.534;-122.308;2022-08-20T08:13:33;100710.75;;;13.03;100.00
69058;BME280;56128;37.534;-122.308;2022-08-20T08:16:01;100708.47;;;12.98;100.00
69058;BME280;56128;37.534;-122.308;2022-08-20T08:18:37;100715.78;;;12.96;100.00
69058;BME280;56128;37.534;-122.308;2022-08-20T08:21:06;100714.81;;;12.97;100.00
69058;BME280;56128;37.534;-122.308;2022-08-20T08:23:32;100709.72;;;12.94;100.00
69058;BME280;56128;37.534;-122.308;2022-08-20T08:25:59;100706.31;;;12.92;100.00
69058;BME280;56128;37.534;-122.308;2022-08-20T08:28:26;100707.03;;;12.94;100.00
69058;BME280;56128;37.534;-122.308;2022-08-20T08:30:54;100701.09;;;12.90;100.00
69058;BME280;56128;37.534;-122.308;2022-08-20T08:33:26;100699.09;;;12.92;100.00
69058;BME280;56128;37.534;-122.308;2022-08-20T08:35:54;100712.81;;;12.89;100.00
69058;BME280;56128;37.534;-122.308;2022-08-20T08:38:21;100710.97;;;12.90;100.00
69058;BME280;56128;37.534;-122.308;2022-08-20T08:40:49;100705.88;;;12.87;100.00
69058;BME280;56128;37.534;-122.308;2022-08-20T08:43:21;100690.44;;;12.79;100.00
69058;BME280;56128;37.534;-122.308;2022-08-20T08:45:57;100702.00;;;12.79;100.00
69058;BME280;56128;37.534;-122.308;2022-08-20T08:48:32;100708.50;;;12.77;100.00
69058;BME280;56128;37.534;-122.308;2022-08-20T08:51:01;100689.41;;;12.70;100.00
69058;BME280;56128;37.534;-122.308;2022-08-20T08:53:33;100692.31;;;12.67;100.00
69058;BME280;56128;37.534;-122.308;2022-08-20T08:56:03;100700.38;;;12.67;100.00
69058;BME280;56128;37.534;-122.308;2022-08-20T08:58:29;100699.94;;;12.62;100.00
69058;BME280;56128;37.534;-122.308;2022-08-20T09:01:02;100707.25;;;12.60;100.00
69058;BME280;56128;37.534;-122.308;2022-08-20T09:03:33;100705.81;;;12.56;100.00
69058;BME280;56128;37.534;-122.308;2022-08-20T09:06:01;100710.53;;;12.63;100.00
69058;BME280;56128;37.534;-122.308;2022-08-20T09:08:52;100705.56;;;12.59;100.00
69058;BME280;56128;37.534;-122.308;2022-08-20T09:11:20;100699.75;;;12.54;100.00
69058;BME280;56128;37.534;-122.308;2022-08-20T09:13:47;100690.69;;;12.55;100.00
69058;BME280;56128;37.534;-122.308;2022-08-20T09:16:14;100683.50;;;12.55;100.00
69058;BME280;56128;37.534;-122.308;2022-08-20T09:18:40;100687.75;;;12.58;100.00
69058;BME280;56128;37.534;-122.308;2022-08-20T09:21:07;100689.47;;;12.59;100.00
69058;BME280;56128;37.534;-122.308;2022-08-20T09:23:34;100695.81;;;12.58;100.00
69058;BME280;56128;37.534;-122.308;2022-08-20T09:26:01;100703.28;;;12.54;100.00
69058;BME280;56128;37.534;-122.308;2022-08-20T09:28:27;100705.69;;;12.57;100.00
69058;BME280;56128;37.534;-122.308;2022-08-20T09:30:53;100704.13;;;12.55;100.00
69058;BME280;56128;37.534;-122.308;2022-08-20T09:33:19;100709.47;;;12.55;100.00
69058;BME280;56128;37.534;-122.308;2022-08-20T09:35:45;100709.75;;;12.52;100.00
69058;BME280;56128;37.534;-122.308;2022-08-20T09:38:12;100694.78;;;12.49;100.00
69058;BME280;56128;37.534;-122.308;2022-08-20T09:40:39;100695.38;;;12.53;100.00
69058;BME280;56128;37.534;-122.308;2022-08-20T09:43:05;100689.53;;;12.47;100.00
69058;BME280;56128;37.534;-122.308;2022-08-20T09:45:32;100684.56;;;12.43;100.00
69058;BME280;56128;37.534;-122.308;2022-08-20T09:47:59;100687.38;;;12.41;100.00
69058;BME280;56128;37.534;-122.308;2022-08-20T09:50:27;100686.97;;;12.46;100.00
69058;BME280;56128;37.534;-122.308;2022-08-20T09:52:54;100673.09;;;12.41;100.00
69058;BME280;56128;37.534;-122.308;2022-08-20T09:55:35;100683.13;;;12.39;100.00
69058;BME280;56128;37.534;-122.308;2022-08-20T09:58:13;100672.19;;;12.30;100.00
69058;BME280;56128;37.534;-122.308;2022-08-20T10:00:42;100673.03;;;12.31;100.00
69058;BME280;56128;37.534;-122.308;2022-08-20T10:03:09;100672.91;;;12.32;100.00
69058;BME280;56128;37.534;-122.308;2022-08-20T10:05:35;100684.50;;;12.33;100.00
69058;BME280;56128;37.534;-122.308;2022-08-20T10:08:08;100676.56;;;12.31;100.00
69058;BME280;56128;37.534;-122.308;2022-08-20T10:10:35;100674.03;;;12.30;100.00
69058;BME280;56128;37.534;-122.308;2022-08-20T10:13:01;100683.91;;;12.29;100.00
69058;BME280;56128;37.534;-122.308;2022-08-20T10:15:29;100667.94;;;12.28;100.00
69058;BME280;56128;37.534;-122.308;2022-08-20T10:17:55;100668.78;;;12.28;100.00
69058;BME280;56128;37.534;-122.308;2022-08-20T10:20:22;100672.47;;;12.27;100.00
69058;BME280;56128;37.534;-122.308;2022-08-20T10:22:49;100665.25;;;12.28;100.00
69058;BME280;56128;37.534;-122.308;2022-08-20T10:25:15;100672.56;;;12.26;100.00
69058;BME280;56128;37.534;-122.308;2022-08-20T10:27:43;100657.47;;;12.25;100.00
69058;BME280;56128;37.534;-122.308;2022-08-20T10:30:10;100668.22;;;12.25;100.00
69058;BME280;56128;37.534;-122.308;2022-08-20T10:32:36;100672.56;;;12.26;100.00
69058;BME280;56128;37.534;-122.308;2022-08-20T10:35:03;100679.91;;;12.24;100.00
69058;BME280;56128;37.534;-122.308;2022-08-20T10:37:29;100681.88;;;12.22;100.00
69058;BME280;56128;37.534;-122.308;2022-08-20T10:39:56;100682.00;;;12.20;100.00
69058;BME280;56128;37.534;-122.308;2022-08-20T10:42:22;100689.53;;;12.26;100.00
69058;BME280;56128;37.534;-122.308;2022-08-20T10:44:48;100681.88;;;12.22;100.00
69058;BME280;56128;37.534;-122.308;2022-08-20T10:49:50;100671.41;;;12.18;100.00
69058;BME280;56128;37.534;-122.308;2022-08-20T10:52:17;100673.97;;;12.20;100.00
69058;BME280;56128;37.534;-122.308;2022-08-20T10:54:43;100679.47;;;12.18;100.00
69058;BME280;56128;37.534;-122.308;2022-08-20T10:57:18;100679.56;;;12.17;100.00
69058;BME280;56128;37.534;-122.308;2022-08-20T10:59:46;100679.56;;;12.17;100.00
69058;BME280;56128;37.534;-122.308;2022-08-20T11:02:13;100677.88;;;12.16;100.00
69058;BME280;56128;37.534;-122.308;2022-08-20T11:04:39;100676.28;;;12.13;100.00
69058;BME280;56128;37.534;-122.308;2022-08-20T11:07:25;100680.81;;;12.13;100.00
69058;BME280;56128;37.534;-122.308;2022-08-20T11:09:52;100672.16;;;12.09;100.00
69058;BME280;56128;37.534;-122.308;2022-08-20T11:12:19;100682.06;;;12.09;100.00
69058;BME280;56128;37.534;-122.308;2022-08-20T11:14:47;100682.06;;;12.09;100.00
69058;BME280;56128;37.534;-122.308;2022-08-20T11:17:26;100681.19;;;12.08;100.00
69058;BME280;56128;37.534;-122.308;2022-08-20T11:19:53;100676.34;;;12.02;100.00
69058;BME280;56128;37.534;-122.308;2022-08-20T11:22:20;100670.97;;;12.02;100.00
69058;BME280;56128;37.534;-122.308;2022-08-20T11:24:46;100674.66;;;12.01;100.00
69058;BME280;56128;37.534;-122.308;2022-08-20T11:27:34;100673.78;;;12.00;100.00
69058;BME280;56128;37.534;-122.308;2022-08-20T11:30:00;100664.91;;;12.00;100.00
69058;BME280;56128;37.534;-122.308;2022-08-20T11:32:27;100665.25;;;11.95;100.00
69058;BME280;56128;37.534;-122.308;2022-08-20T11:34:53;100667.00;;;11.96;100.00
69058;BME280;56128;37.534;-122.308;2022-08-20T11:37:21;100672.22;;;11.98;100.00
69058;BME280;56128;37.534;-122.308;2022-08-20T11:39:48;100675.88;;;11.97;100.00
69058;BME280;56128;37.534;-122.308;2022-08-20T11:42:15;100675.97;;;11.95;100.00
69058;BME280;56128;37.534;-122.308;2022-08-20T11:44:41;100665.63;;;11.91;100.00
69058;BME280;56128;37.534;-122.308;2022-08-20T11:47:11;100670.75;;;11.94;100.00
69058;BME280;56128;37.534;-122.308;2022-08-20T11:49:44;100674.41;;;11.93;100.00
69058;BME280;56128;37.534;-122.308;2022-08-20T11:52:10;100666.63;;;11.90;100.00
69058;BME280;56128;37.534;-122.308;2022-08-20T11:54:36;100673.69;;;11.91;100.00
69058;BME280;56128;37.534;-122.308;2022-08-20T11:57:05;100676.25;;;11.92;100.00
69058;BME280;56128;37.534;-122.308;2022-08-20T11:59:31;100672.09;;;11.88;100.00
69058;BME280;56128;37.534;-122.308;2022-08-20T12:01:57;100672.25;;;11.86;100.00
69058;BME280;56128;37.534;-122.308;2022-08-20T12:04:25;100681.25;;;11.85;100.00
69058;BME280;56128;37.534;-122.308;2022-08-20T12:06:51;100680.56;;;11.83;100.00
69058;BME280;56128;37.534;-122.308;2022-08-20T12:09:17;100685.66;;;11.86;100.00
69058;BME280;56128;37.534;-122.308;2022-08-20T12:11:43;100699.31;;;11.83;100.00
69058;BME280;56128;37.534;-122.308;2022-08-20T12:14:10;100690.28;;;11.84;100.00
69058;BME280;56128;37.534;-122.308;2022-08-20T12:16:37;100689.44;;;11.84;100.00
69058;BME280;56128;37.534;-122.308;2022-08-20T12:19:03;100693.97;;;11.83;100.00
69058;BME280;56128;37.534;-122.308;2022-08-20T12:21:29;100678.09;;;11.80;100.00
69058;BME280;56128;37.534;-122.308;2022-08-20T12:23:55;100694.06;;;11.82;100.00
69058;BME280;56128;37.534;-122.308;2022-08-20T12:26:21;100688.59;;;11.83;100.00
69058;BME280;56128;37.534;-122.308;2022-08-20T12:28:47;100690.69;;;11.80;100.00